Weather observations for the past three days for
Audubon, Audubon County Airport
| Date | Time (cdt) | Wind (kph) | Vis. (km) | Weather | Sky Cond. | Temperature (ºC) | Relative Humidity | Wind Chill (°C) | Heat Index (°C) | Pressure | Precipitation (cm) | ||||||
|---|---|---|---|---|---|---|---|---|---|---|---|---|---|---|---|---|---|
| Air | Dwpt | 6 hour | altimeter (cm) | sea level (mb) | 1 hr | 3 hr | 6 hr | ||||||||||
| Max. | Min. | ||||||||||||||||
| 04 | 19:15 | N 30 G 41 | 16.09 | Overcast | SCT003 BKN015 OVC080 | 18 | -4 | 22% | 75.39 | 0.0 | |||||||
| 04 | 18:35 | NW 35 G 43 | 16.09 | Overcast and Breezy | SCT006 BKN060 OVC075 | 21 | -3 | 20% | 75.31 | 0.0 | |||||||
| 04 | 18:15 | NW 26 G 41 | 16.09 | Overcast | SCT012 BKN060 OVC075 | 22 | -2 | 20% | 75.31 | 0.0 | |||||||
| 04 | 17:55 | NW 30 G 43 | 16.09 | Overcast | SCT030 BKN050 OVC090 | 22 | -2 | 20% | 75.29 | 0.0 | |||||||
| 04 | 17:35 | N 28 G 41 | 16.09 | Overcast | SCT021 BKN050 OVC070 | 22 | -2 | 20% | 75.26 | 0.0 | |||||||
| 04 | 17:15 | N 26 G 37 | 16.09 | Overcast | SCT009 BKN046 OVC060 | 23 | -2 | 19% | 75.23 | 0.0 | |||||||
| 04 | 16:55 | N 26 G 37 | 16.09 | Overcast | SCT008 BKN037 OVC060 | 23 | -2 | 19% | 75.21 | 0.0 | |||||||
| 04 | 16:35 | N 24 G 35 | 16.09 | Overcast | SCT009 BKN034 OVC070 | 24 | -2 | 18% | 24 | 75.18 | 0.0 | ||||||
| 04 | 16:15 | NW 26 G 31 | 16.09 | Overcast | SCT008 BKN039 OVC100 | 24 | 0 | 21% | 25 | 75.18 | 0.0 | ||||||
| 04 | 15:55 | NW 22 G 33 | 16.09 | Overcast | SCT004 BKN030 OVC095 | 24 | 1 | 22% | 25 | 75.16 | 0.0 | ||||||
| 04 | 15:35 | NW 20 G 31 | 16.09 | Overcast | SCT004 BKN025 OVC065 | 25 | 2 | 22% | 25 | 75.13 | 0.0 | ||||||
| 04 | 14:55 | NW 17 G 30 | 16.09 | Overcast | SCT002 BKN034 OVC070 | 26 | 5 | 26% | 26 | 75.13 | 0.0 | ||||||
| 04 | 14:35 | NW 26 G 33 | 16.09 | Overcast | SCT003 BKN035 OVC050 | 26 | 5 | 26% | 26 | 75.13 | 0.0 | ||||||
| 04 | 14:15 | NW 22 G 35 | 16.09 | Overcast | SCT003 BKN024 OVC085 | 26 | 4 | 24% | 26 | 75.11 | 0.0 | ||||||
| 04 | 13:55 | NW 20 G 39 | 16.09 | Overcast | SCT003 BKN020 OVC065 | 26 | 3 | 23% | 26 | 75.11 | 0.0 | ||||||
| 04 | 13:35 | NW 13 | 16.09 | Overcast | BKN003 BKN026 OVC060 | 26 | 2 | 21% | 26 | 75.08 | 0.0 | ||||||
| 04 | 13:15 | NW 20 G 30 | 16.09 | Overcast | BKN003 BKN016 OVC050 | 26 | 1 | 20% | 25 | 75.11 | 0.0 | ||||||
| 04 | 12:55 | W 11 G 26 | 16.09 | Overcast | SCT003 BKN015 OVC043 | 26 | 2 | 21% | 26 | 75.11 | 0.0 | ||||||
| 04 | 12:35 | W 11 | 16.09 | Overcast | SCT002 BKN037 OVC070 | 26 | 2 | 21% | 26 | 75.11 | 0.0 | ||||||
| 04 | 12:15 | W 11 | 16.09 | Overcast | SCT002 BKN017 OVC075 | 25 | 3 | 24% | 25 | 75.13 | 0.0 | ||||||
| 04 | 11:55 | W 17 G 28 | 16.09 | Overcast | BKN002 BKN014 OVC070 | 24 | 2 | 24% | 25 | 75.13 | 0.0 | ||||||
| 04 | 11:35 | W 17 G 28 | 16.09 | Overcast | SCT002 BKN010 OVC070 | 24 | 3 | 25% | 25 | 75.13 | 0.0 | ||||||
| 04 | 11:15 | W 11 | 16.09 | Overcast | BKN002 BKN016 OVC080 | 24 | 5 | 29% | 25 | 75.13 | 0.0 | ||||||
| 04 | 10:55 | SW 17 | 16.09 | Overcast | SCT004 BKN033 OVC080 | 23 | 5 | 31% | 75.13 | 0.0 | |||||||
| 04 | 10:35 | SW 19 | 16.09 | Overcast | SCT004 BKN031 OVC060 | 23 | 6 | 33% | 75.13 | 0.0 | |||||||
| 04 | 10:15 | W 11 | 16.09 | Overcast | SCT012 BKN031 OVC055 | 23 | 6 | 33% | 75.13 | 0.0 | |||||||
| 04 | 09:55 | SW 15 | 16.09 | Overcast | SCT011 BKN027 OVC070 | 22 | 6 | 36% | 75.11 | 0.0 | |||||||
| 04 | 09:35 | SW 17 | 16.09 | Overcast | SCT024 BKN055 OVC090 | 21 | 6 | 38% | 75.13 | 0.0 | |||||||
| 04 | 09:15 | SW 17 | 16.09 | Overcast | SCT023 BKN065 OVC090 | 19 | 6 | 43% | 75.13 | 0.0 | |||||||
| 04 | 08:55 | S 11 | 16.09 | Mostly Cloudy | SCT035 SCT050 BKN070 | 18 | 6 | 46% | 75.16 | 0.0 | |||||||
| 04 | 08:35 | S 9 | 16.09 | Mostly Cloudy | SCT030 SCT050 BKN080 | 17 | 8 | 56% | 75.16 | 0.0 | |||||||
| 04 | 08:15 | Calm | 16.09 | Mostly Cloudy | SCT033 SCT047 BKN070 | 13 | 9 | 77% | 75.16 | 0.0 | |||||||
| 04 | 07:55 | Calm | 16.09 | Mostly Cloudy | SCT036 SCT049 BKN100 | 11 | 8 | 82% | 75.18 | 0.0 | |||||||
| 04 | 07:35 | Calm | 16.09 | Mostly Cloudy | SCT003 SCT042 BKN080 | 9 | 6 | 82% | 75.18 | 0.0 | |||||||
| 04 | 07:15 | Calm | 16.09 | Mostly Cloudy | SCT003 SCT026 BKN070 | 7 | 5 | 87% | 75.18 | 0.0 | |||||||
| 04 | 06:55 | Calm | 16.09 | Mostly Cloudy | SCT046 SCT070 BKN110 | 6 | 4 | 87% | 75.18 | 0.0 | |||||||
| 04 | 06:35 | Calm | 16.09 | Mostly Cloudy | SCT050 SCT070 BKN110 | 5 | 3 | 87% | 75.18 | 0.0 | |||||||
| 04 | 06:15 | Calm | 16.09 | Mostly Cloudy | SCT055 SCT070 BKN110 | 5 | 3 | 87% | 75.18 | 0.0 | |||||||
| 04 | 05:55 | Calm | 16.09 | Mostly Cloudy | SCT046 SCT060 BKN110 | 4 | 2 | 87% | 75.18 | 0.0 | |||||||
| 04 | 05:35 | Calm | 16.09 | Partly Cloudy | SCT050 SCT070 SCT095 | 4 | 2 | 87% | 75.23 | 0.0 | |||||||
| 04 | 05:15 | Calm | 16.09 | Partly Cloudy | SCT050 SCT060 SCT085 | 4 | 2 | 87% | 75.23 | 0.0 | |||||||
| 04 | 04:55 | Calm | 16.09 | Mostly Cloudy | SCT050 SCT070 BKN085 | 4 | 2 | 87% | 75.26 | 0.0 | |||||||
| 04 | 04:35 | Calm | 16.09 | Partly Cloudy | SCT046 SCT075 | 4 | 2 | 87% | 75.26 | 0.0 | |||||||
| 04 | 04:15 | Calm | 16.09 | Partly Cloudy | SCT049 SCT060 SCT095 | 4 | 2 | 87% | 75.29 | 0.0 | |||||||
| 04 | 03:55 | Calm | 16.09 | Partly Cloudy | SCT075 SCT095 | 4 | 2 | 87% | 75.29 | 0.0 | |||||||
| 04 | 03:35 | Calm | 16.09 | Partly Cloudy | SCT050 SCT065 SCT085 | 4 | 3 | 93% | 75.29 | 0.0 | |||||||
| 04 | 03:15 | Calm | 16.09 | Partly Cloudy | SCT055 SCT065 | 4 | 2 | 87% | 75.31 | 0.0 | |||||||
| 04 | 02:55 | Calm | 16.09 | Partly Cloudy | SCT049 SCT065 | 4 | 3 | 93% | 75.34 | 0.0 | |||||||
| 04 | 02:35 | Calm | 16.09 | Partly Cloudy | SCT049 SCT065 SCT085 | 4 | 2 | 87% | 75.39 | 0.0 | |||||||
| 04 | 02:15 | Calm | 16.09 | Partly Cloudy | SCT065 SCT070 SCT085 | 4 | 2 | 87% | 75.39 | 0.0 | |||||||
| 04 | 01:55 | Calm | 16.09 | Mostly Cloudy | SCT049 SCT065 BKN090 | 4 | 2 | 87% | 75.41 | 0.0 | |||||||
| 04 | 01:35 | Calm | 16.09 | Mostly Cloudy | SCT045 SCT065 BKN090 | 5 | 3 | 87% | 75.44 | 0.0 | |||||||
| 04 | 01:15 | Calm | 16.09 | Partly Cloudy | SCT045 SCT055 SCT070 | 5 | 3 | 87% | 75.49 | 0.0 | |||||||
| 04 | 00:55 | Calm | 16.09 | Partly Cloudy | SCT055 SCT070 SCT080 | 6 | 3 | 81% | 75.49 | 0.0 | |||||||
| 04 | 00:35 | Calm | 16.09 | Mostly Cloudy | SCT050 SCT065 BKN075 | 6 | 3 | 81% | 75.51 | 0.0 | |||||||
| 04 | 00:15 | Calm | 16.09 | Mostly Cloudy | SCT050 SCT070 BKN075 | 6 | 3 | 81% | 75.51 | 0.0 | |||||||
| 03 | 23:55 | Calm | 16.09 | Mostly Cloudy | SCT050 SCT070 BKN090 | 7 | 3 | 76% | 75.51 | 0.0 | |||||||
| 03 | 23:35 | Calm | 16.09 | Mostly Cloudy | SCT045 SCT060 BKN075 | 7 | 4 | 81% | 75.54 | 0.0 | |||||||
| 03 | 23:15 | Calm | 16.09 | Mostly Cloudy | SCT043 SCT060 BKN070 | 8 | 3 | 71% | 75.57 | 0.0 | |||||||
| 03 | 22:55 | Calm | 16.09 | Mostly Cloudy | SCT060 SCT070 BKN080 | 7 | 3 | 76% | 75.57 | 0.0 | |||||||
| 03 | 22:35 | Calm | 16.09 | Mostly Cloudy | SCT045 SCT060 BKN080 | 7 | 3 | 76% | 75.59 | 0.0 | |||||||
| 03 | 22:15 | Calm | 16.09 | Mostly Cloudy | SCT045 SCT060 BKN090 | 9 | 3 | 66% | 75.59 | 0.0 | |||||||
| 03 | 21:55 | Calm | 16.09 | Mostly Cloudy | SCT060 SCT070 BKN090 | 11 | 3 | 58% | 75.62 | 0.0 | |||||||
| 03 | 21:35 | Calm | 16.09 | Mostly Cloudy | SCT046 SCT060 BKN075 | 9 | 3 | 66% | 75.62 | 0.0 | |||||||
| 03 | 21:15 | Calm | 16.09 | Mostly Cloudy | SCT046 SCT060 BKN075 | 10 | 4 | 67% | 75.62 | 0.0 | |||||||
| 03 | 20:55 | Calm | 16.09 | Mostly Cloudy | SCT042 SCT065 BKN075 | 14 | 1 | 41% | 75.62 | 0.0 | |||||||
| 03 | 20:35 | SW 7 | 16.09 | Mostly Cloudy | SCT048 SCT060 BKN075 | 17 | -1 | 30% | 75.62 | 0.0 | |||||||
| 03 | 20:15 | Calm | 16.09 | Mostly Cloudy | SCT033 SCT050 BKN075 | 18 | -1 | 28% | 75.62 | 0.0 | |||||||
| 03 | 19:55 | Calm | 16.09 | Mostly Cloudy | SCT035 SCT055 BKN090 | 19 | -1 | 26% | 75.62 | 0.0 | |||||||
| 03 | 19:35 | Calm | 16.09 | Partly Cloudy | SCT047 SCT065 SCT080 | 20 | -1 | 24% | 75.62 | 0.0 | |||||||
| 03 | 19:15 | NW 6 | 16.09 | Overcast | SCT004 BKN048 OVC085 | 21 | -3 | 20% | 75.64 | 0.0 | |||||||
| 03 | 18:55 | NW 6 | 16.09 | Mostly Cloudy | SCT009 SCT039 BKN060 | 22 | -4 | 17% | 75.64 | 0.0 | |||||||
| 03 | 18:35 | W 6 | 16.09 | Mostly Cloudy | SCT012 SCT037 BKN070 | 22 | -6 | 15% | 75.64 | 0.0 | |||||||
| 03 | 18:15 | NW 9 | 16.09 | Overcast | SCT002 BKN055 OVC090 | 22 | -4 | 17% | 75.64 | 0.0 | |||||||
| 03 | 17:55 | NW 9 | 16.09 | Overcast | SCT032 BKN070 OVC085 | 23 | -5 | 15% | 75.64 | 0.0 | |||||||
| 03 | 17:35 | NW 15 | 16.09 | Overcast | SCT004 BKN060 OVC085 | 22 | -5 | 16% | 75.67 | 0.0 | |||||||
| 03 | 17:15 | W 6 G 26 | 16.09 | Overcast | SCT002 BKN032 OVC085 | 22 | -5 | 16% | 75.67 | 0.0 | |||||||
| 03 | 16:55 | N 13 | 16.09 | Overcast | SCT002 BKN020 OVC080 | 23 | -5 | 15% | 75.67 | 0.0 | |||||||
| 03 | 16:35 | NW 15 | 16.09 | Overcast | SCT002 BKN016 OVC065 | 23 | -4 | 16% | 75.67 | 0.0 | |||||||
| 03 | 16:15 | NW 17 G 28 | 16.09 | Overcast | SCT002 BKN023 OVC095 | 23 | -4 | 16% | 75.69 | 0.0 | |||||||
| 03 | 15:55 | W 11 | 16.09 | Overcast | SCT004 BKN019 OVC070 | 23 | -6 | 14% | 75.72 | 0.0 | |||||||
| 03 | 15:35 | NW 15 | 16.09 | NULL | NULL | 23 | -7 | 13% | 75.72 | 0.0 | |||||||
| 03 | 15:15 | NW 9 G 28 | 16.09 | NULL | NULL | 22 | -7 | 14% | 75.72 | 0.0 | |||||||
| 03 | 14:55 | NW 22 G 33 | 16.09 | Overcast | SCT002 BKN015 OVC050 | 22 | -5 | 16% | 75.72 | 0.0 | |||||||
| 03 | 14:35 | NW 13 | 16.09 | Overcast | SCT001 BKN015 OVC050 | 22 | -4 | 17% | 75.74 | 0.0 | |||||||
| 03 | 14:15 | NW 22 G 31 | 16.09 | Overcast | SCT003 BKN018 OVC050 | 22 | -5 | 16% | 75.74 | 0.0 | |||||||
| 03 | 13:55 | NW 20 G 28 | 16.09 | NULL | NULL | 22 | -3 | 19% | 75.77 | 0.0 | |||||||
| 03 | 13:35 | NW 17 G 26 | 16.09 | NULL | NULL | 21 | -2 | 21% | 75.77 | 0.0 | |||||||
| 03 | 13:15 | NW 19 G 30 | 16.09 | NULL | NULL | 22 | -1 | 22% | 75.79 | 0.0 | |||||||
| 03 | 12:55 | NW 24 | 16.09 | NULL | NULL | 22 | 1 | 25% | 75.77 | 0.0 | |||||||
| 03 | 12:35 | NW 17 G 28 | 16.09 | NULL | NULL | 21 | -1 | 23% | 75.79 | 0.0 | |||||||
| 03 | 12:15 | NW 22 G 31 | 16.09 | NULL | NULL | 21 | -1 | 23% | 75.79 | 0.0 | |||||||
| 03 | 11:55 | NW 20 G 26 | 16.09 | NULL | NULL | 21 | -1 | 23% | 75.79 | 0.0 | |||||||
| 03 | 11:35 | NW 15 | 16.09 | NULL | NULL | 20 | 1 | 28% | 75.79 | 0.0 | |||||||
| 03 | 11:15 | N 19 | 16.09 | NULL | NULL | 19 | -1 | 26% | 75.74 | 0.0 | |||||||
| 03 | 10:55 | NW 22 | 16.09 | NULL | NULL | 19 | 1 | 30% | 75.79 | 0.0 | |||||||
| 03 | 10:35 | N 22 G 28 | 16.09 | NULL | NULL | 19 | 2 | 32% | 75.77 | 0.0 | |||||||
| 03 | 10:15 | NW 17 | 16.09 | Overcast | SCT003 BKN028 OVC090 | 19 | 3 | 35% | 75.79 | 0.0 | |||||||
| 03 | 09:55 | NW 17 | 16.09 | Overcast | SCT003 BKN045 OVC090 | 18 | 3 | 37% | 75.77 | 0.0 | |||||||
| 03 | 09:35 | NW 9 | 16.09 | Overcast | SCT003 BKN048 OVC070 | 18 | 3 | 37% | 75.77 | 0.0 | |||||||
| 03 | 09:15 | W 13 | 16.09 | Mostly Cloudy | SCT009 SCT036 BKN050 | 17 | 2 | 37% | 75.79 | 0.0 | |||||||
| 03 | 08:55 | W 11 | 16.09 | Mostly Cloudy | SCT028 SCT044 BKN075 | 17 | 2 | 37% | 75.77 | 0.0 | |||||||
| 03 | 08:35 | W 15 G 26 | 16.09 | Mostly Cloudy | SCT003 SCT027 BKN044 | 16 | 2 | 39% | 75.77 | 0.0 | |||||||
| 03 | 08:15 | SW 19 | 16.09 | NULL | NULL | 14 | 2 | 44% | 75.77 | 0.0 | |||||||
| 03 | 07:55 | SW 17 | 16.09 | NULL | NULL | 13 | 2 | 47% | 75.74 | 0.0 | |||||||
| 03 | 07:35 | SW 15 | 16.09 | NULL | NULL | 11 | 2 | 54% | 75.74 | 0.0 | |||||||
| 03 | 07:15 | S 11 | 16.09 | NULL | NULL | 11 | 2 | 54% | 75.74 | 0.0 | |||||||
| 03 | 06:55 | SW 9 | 16.09 | NULL | NULL | 9 | 2 | 62% | 8 | 75.74 | 0.0 | ||||||
| 03 | 06:35 | SW 7 | 16.09 | NULL | NULL | 9 | 2 | 62% | 8 | 75.72 | 0.0 | ||||||
| 03 | 06:15 | S 13 | 16.09 | NULL | NULL | 9 | 2 | 62% | 7 | 75.74 | 0.0 | ||||||
| 03 | 05:55 | S 11 | 16.09 | Mostly Cloudy | SCT060 BKN075 | 8 | 2 | 66% | 6 | 75.74 | 0.0 | ||||||
| 03 | 05:35 | SW 6 | 16.09 | Mostly Cloudy | SCT050 BKN075 BKN085 | 8 | 2 | 66% | 75.79 | 0.0 | |||||||
| 03 | 05:15 | SW 9 | 16.09 | NULL | NULL | 9 | 2 | 62% | 8 | 75.79 | 0.0 | ||||||
| 03 | 04:55 | S 19 G 26 | 16.09 | NULL | NULL | 10 | 1 | 54% | 8 | 75.74 | 0.0 | ||||||
| 03 | 04:35 | S 20 | 16.09 | NULL | NULL | 10 | 1 | 54% | 8 | 75.74 | 0.0 | ||||||
| 03 | 04:15 | S 20 G 31 | 16.09 | NULL | NULL | 11 | 0 | 47% | 75.77 | 0.0 | |||||||
| 03 | 03:55 | S 20 G 30 | 16.09 | NULL | NULL | 11 | 1 | 50% | 75.77 | 0.0 | |||||||
| 03 | 03:35 | S 19 G 28 | 16.09 | NULL | NULL | 11 | 0 | 47% | 75.79 | 0.0 | |||||||
| 03 | 03:15 | S 17 | 16.09 | NULL | NULL | 11 | 0 | 47% | 75.79 | 0.0 | |||||||
| 03 | 02:55 | S 17 | 16.09 | NULL | NULL | 11 | -1 | 44% | 75.84 | 0.0 | |||||||
| 03 | 02:35 | S 17 | 16.09 | NULL | NULL | 11 | -1 | 44% | 75.84 | 0.0 | |||||||
| 03 | 02:15 | S 17 | 16.09 | NULL | NULL | 11 | -1 | 44% | 75.87 | 0.0 | |||||||
| 03 | 01:55 | S 15 | 16.09 | NULL | NULL | 11 | -1 | 44% | 75.87 | 0.0 | |||||||
| 03 | 01:35 | S 17 | 16.09 | NULL | NULL | 12 | -2 | 38% | 75.9 | 0.0 | |||||||
| 03 | 01:15 | S 15 | 16.09 | NULL | NULL | 11 | -1 | 44% | 75.9 | 0.0 | |||||||
| 03 | 00:55 | S 13 | 16.09 | NULL | NULL | 11 | -1 | 44% | 75.92 | 0.0 | |||||||
| 03 | 00:35 | S 11 | 16.09 | NULL | NULL | 11 | -1 | 44% | 75.95 | 0.0 | |||||||
| 03 | 00:15 | S 11 | 16.09 | NULL | NULL | 11 | -1 | 44% | 75.97 | 0.0 | |||||||
| 02 | 23:55 | S 11 | 16.09 | NULL | NULL | 11 | -1 | 44% | 75.97 | 0.0 | |||||||
| 02 | 23:35 | S 11 | 16.09 | NULL | NULL | 11 | -1 | 44% | 75.97 | 0.0 | |||||||
| 02 | 23:15 | S 11 | 16.09 | NULL | NULL | 11 | -1 | 44% | 76.02 | 0.0 | |||||||
| 02 | 22:55 | S 11 | 16.09 | Partly Cloudy | SCT065 SCT080 | 11 | -2 | 41% | 76.05 | 0.0 | |||||||
| 02 | 22:35 | S 9 | 16.09 | Partly Cloudy | SCT055 SCT065 SCT080 | 11 | -1 | 44% | 76.05 | 0.0 | |||||||
| 02 | 22:15 | S 7 | 16.09 | Partly Cloudy | SCT065 | 11 | -2 | 41% | 76.07 | 0.0 | |||||||
| 02 | 21:55 | S 6 | 16.09 | Partly Cloudy | SCT075 SCT080 | 11 | -2 | 41% | 76.07 | 0.0 | |||||||
| 02 | 21:35 | S 9 | 16.09 | NULL | NULL | 12 | -3 | 35% | 76.07 | 0.0 | |||||||
| 02 | 21:15 | S 11 | 16.09 | NULL | NULL | 13 | -3 | 33% | 76.1 | 0.0 | |||||||
| 02 | 20:55 | S 11 | 16.09 | Mostly Cloudy | SCT048 SCT065 BKN070 | 13 | -3 | 33% | 76.1 | 0.0 | |||||||
| 02 | 20:35 | S 7 | 16.09 | Mostly Cloudy | SCT048 SCT065 BKN075 | 13 | -3 | 33% | 76.12 | 0.0 | |||||||
| 02 | 20:15 | S 9 | 16.09 | NULL | NULL | 14 | -4 | 29% | 76.15 | 0.0 | |||||||
| 02 | 19:55 | SW 6 | 16.09 | NULL | NULL | 16 | -6 | 22% | 76.15 | 0.0 | |||||||
| 02 | 19:35 | SW 7 | 16.09 | NULL | NULL | 17 | -6 | 20% | 76.15 | 0.0 | |||||||
| 02 | 19:15 | SW 9 | 16.09 | NULL | NULL | 17 | -6 | 20% | 76.15 | 0.0 | |||||||
| 02 | 18:55 | SW 11 | 16.09 | Mostly Cloudy | SCT035 SCT050 BKN065 | 18 | -7 | 18% | 76.17 | 0.0 | |||||||
| 02 | 18:35 | W 11 | 16.09 | Mostly Cloudy | SCT040 SCT050 BKN065 | 18 | -7 | 18% | 76.2 | 0.0 | |||||||
| 02 | 18:15 | W 9 | 16.09 | Overcast | SCT040 BKN075 OVC090 | 18 | -6 | 19% | 76.2 | 0.0 | |||||||
| 02 | 17:55 | W 6 | 16.09 | Overcast | SCT029 BKN060 OVC090 | 18 | -7 | 18% | 76.23 | 0.0 | |||||||
| 02 | 17:35 | S 9 | 16.09 | Overcast | SCT024 BKN049 OVC070 | 18 | -8 | 16% | 76.23 | 0.0 | |||||||
| 02 | 17:15 | NW 7 | 16.09 | Overcast | SCT024 BKN050 OVC070 | 18 | -7 | 18% | 76.25 | 0.0 | |||||||
| 02 | 16:55 | SW 6 | 16.09 | Overcast | SCT021 BKN036 OVC070 | 18 | -8 | 16% | 76.25 | 0.0 | |||||||
| 02 | 16:35 | SW 7 | 16.09 | Overcast | SCT010 BKN045 OVC080 | 18 | -7 | 18% | 76.28 | 0.0 | |||||||
| 02 | 16:15 | NW 9 | 16.09 | Overcast | SCT022 BKN042 OVC085 | 18 | -7 | 18% | 76.3 | 0.0 | |||||||
| 02 | 15:55 | W 6 | 16.09 | Overcast | SCT012 BKN039 OVC070 | 18 | -6 | 19% | 76.33 | 0.0 | |||||||
| 02 | 15:35 | W 9 | 16.09 | Overcast | SCT004 BKN018 OVC075 | 18 | -5 | 21% | 76.35 | 0.0 | |||||||
| 02 | 15:15 | Calm | 16.09 | Overcast | SCT004 BKN025 OVC065 | 17 | -6 | 20% | 76.38 | 0.0 | |||||||
| 02 | 14:55 | W 13 | 16.09 | Overcast | SCT003 BKN016 OVC065 | 17 | -6 | 20% | 76.4 | 0.0 | |||||||
| 02 | 14:35 | NW 13 | 16.09 | Overcast | SCT002 BKN030 OVC070 | 17 | -4 | 24% | 76.4 | 0.0 | |||||||
| 02 | 14:15 | W 13 | 16.09 | Overcast | SCT005 BKN033 OVC060 | 16 | -6 | 22% | 76.43 | 0.0 | |||||||
| 02 | 13:55 | NW 13 | 16.09 | Overcast | SCT006 BKN035 OVC070 | 16 | -4 | 25% | 76.48 | 0.0 | |||||||
| 02 | 13:35 | Calm | 16.09 | Overcast | SCT011 BKN042 OVC090 | 15 | -7 | 21% | 76.48 | 0.0 | |||||||
| 02 | 13:15 | W 6 | 16.09 | Overcast | SCT012 BKN041 OVC060 | 15 | -6 | 23% | 76.48 | 0.0 | |||||||
| 02 | 12:55 | Calm | 16.09 | Overcast | SCT015 BKN050 OVC090 | 14 | -6 | 25% | 76.5 | 0.0 | |||||||
| 02 | 12:35 | W 6 | 16.09 | Overcast | SCT015 BKN060 OVC090 | 15 | -4 | 27% | 76.53 | 0.0 | |||||||
| 02 | 12:15 | N 13 | 16.09 | Overcast | SCT016 BKN039 OVC080 | 14 | -5 | 27% | 76.56 | 0.0 | |||||||
| 02 | 11:55 | W 15 | 16.09 | Overcast | SCT020 BKN031 OVC065 | 14 | -4 | 29% | 76.56 | 0.0 | |||||||
| 02 | 11:35 | W 9 | 16.09 | Overcast | SCT027 BKN049 OVC080 | 13 | -4 | 31% | 76.58 | 0.0 | |||||||
| 02 | 11:15 | Calm | 16.09 | Overcast | SCT029 BKN048 OVC080 | 13 | -5 | 28% | 76.58 | 0.0 | |||||||
| 02 | 10:55 | Calm | 16.09 | Overcast | SCT027 BKN055 OVC080 | 13 | -3 | 33% | 76.58 | 0.0 | |||||||
| 02 | 10:35 | NW 11 | 16.09 | Overcast | SCT024 BKN050 OVC090 | 12 | -4 | 33% | 76.58 | 0.0 | |||||||
| 02 | 10:15 | W 9 | 16.09 | Overcast | SCT031 BKN049 OVC080 | 12 | -4 | 33% | 76.61 | 0.0 | |||||||
| 02 | 09:55 | NW 7 | 16.09 | Overcast | SCT031 BKN070 OVC090 | 12 | -4 | 33% | 76.61 | 0.0 | |||||||
| 02 | 09:35 | NW 6 | 16.09 | Mostly Cloudy | SCT034 SCT055 BKN080 | 11 | -4 | 35% | 76.61 | 0.0 | |||||||
| 02 | 09:15 | Calm | 16.09 | Mostly Cloudy | SCT035 SCT055 BKN070 | 11 | -2 | 41% | 76.61 | 0.0 | |||||||
| 02 | 08:55 | Calm | 16.09 | Mostly Cloudy | SCT036 SCT048 BKN075 | 9 | 2 | 62% | 76.61 | 0.0 | |||||||
| 02 | 08:35 | Calm | 16.09 | Mostly Cloudy | SCT034 SCT047 BKN075 | 7 | 2 | 71% | 76.61 | 0.0 | |||||||
| 02 | 08:15 | Calm | 16.09 | Partly Cloudy | SCT036 SCT050 SCT080 | 6 | 1 | 71% | 76.63 | 0.0 | |||||||
| 02 | 07:55 | Calm | 16.09 | Partly Cloudy | SCT039 SCT050 SCT080 | 3 | 0 | 81% | 76.61 | 0.0 | |||||||
| 02 | 07:35 | Calm | 16.09 | Partly Cloudy | SCT050 SCT070 | 1 | -1 | 87% | 76.61 | 0.0 | |||||||
| 02 | 07:15 | Calm | 16.09 | Partly Cloudy | SCT050 SCT080 | 0 | -2 | 87% | 76.61 | 0.0 | |||||||
| 02 | 06:55 | Calm | 16.09 | Partly Cloudy | SCT048 SCT080 | -2 | -3 | 93% | 76.61 | 0.0 | |||||||
| 02 | 06:35 | Calm | 16.09 | Partly Cloudy | SCT050 SCT065 SCT080 | -2 | -4 | 86% | 76.58 | 0.0 | |||||||
| 02 | 06:15 | Calm | 16.09 | Partly Cloudy | SCT050 SCT065 SCT090 | -3 | -4 | 93% | 76.56 | 0.0 | |||||||
| 02 | 05:55 | Calm | 16.09 | Partly Cloudy | SCT065 SCT090 | -2 | -4 | 86% | 76.56 | 0.0 | |||||||
| 02 | 05:35 | Calm | 16.09 | Partly Cloudy | SCT055 SCT065 SCT090 | -2 | -3 | 93% | 76.56 | 0.0 | |||||||
| 02 | 05:15 | Calm | 16.09 | Partly Cloudy | SCT065 SCT085 | -2 | -3 | 93% | 76.56 | 0.0 | |||||||
| 02 | 04:55 | Calm | 16.09 | Partly Cloudy | SCT047 SCT065 SCT075 | -2 | -3 | 93% | 76.56 | 0.0 | |||||||
| 02 | 04:35 | Calm | 16.09 | Partly Cloudy | SCT075 SCT090 | -2 | -3 | 93% | 76.56 | 0.0 | |||||||
| 02 | 04:15 | Calm | 16.09 | Partly Cloudy | SCT050 SCT075 SCT090 | -1 | -3 | 86% | 76.56 | 0.0 | |||||||
| 02 | 03:55 | Calm | 16.09 | Partly Cloudy | SCT055 SCT075 SCT090 | -1 | -3 | 86% | 76.56 | 0.0 | |||||||
| 02 | 03:35 | Calm | 16.09 | Partly Cloudy | SCT050 SCT075 | -1 | -3 | 86% | 76.53 | 0.0 | |||||||
| 02 | 03:15 | Calm | 16.09 | Partly Cloudy | SCT055 SCT065 SCT085 | -1 | -3 | 86% | 76.56 | 0.0 | |||||||
| 02 | 02:55 | Calm | 16.09 | Mostly Cloudy | SCT055 SCT075 BKN085 | -1 | -3 | 86% | 76.56 | 0.0 | |||||||
| 02 | 02:35 | Calm | 16.09 | Partly Cloudy | SCT055 SCT065 SCT085 | 0 | -2 | 87% | 76.56 | 0.0 | |||||||
| 02 | 02:15 | Calm | 16.09 | Partly Cloudy | SCT055 SCT065 | 0 | -2 | 87% | 76.56 | 0.0 | |||||||
| 02 | 01:35 | Calm | 16.09 | Mostly Cloudy | SCT050 SCT060 BKN070 | 0 | -2 | 87% | 76.58 | 0.0 | |||||||
| 02 | 01:15 | Calm | 16.09 | Partly Cloudy | SCT055 SCT065 SCT080 | 0 | -2 | 87% | 76.58 | 0.0 | |||||||
| 02 | 00:55 | Calm | 16.09 | Partly Cloudy | SCT050 SCT065 SCT080 | -1 | -3 | 86% | 76.56 | 0.0 | |||||||
| 02 | 00:35 | Calm | 16.09 | Mostly Cloudy | SCT050 SCT065 BKN080 | -1 | -3 | 86% | 76.56 | 0.0 | |||||||
| 02 | 00:15 | Calm | 16.09 | Mostly Cloudy | SCT047 SCT055 BKN090 | 1 | -2 | 81% | 76.56 | 0.0 | |||||||
| 01 | 23:55 | Calm | 16.09 | Mostly Cloudy | SCT044 SCT065 BKN090 | 1 | -2 | 81% | 76.56 | 0.0 | |||||||
| 01 | 23:35 | Calm | 16.09 | Partly Cloudy | SCT046 SCT065 SCT080 | 2 | -2 | 75% | 76.53 | 0.0 | |||||||
| 01 | 23:15 | Calm | 16.09 | Partly Cloudy | SCT046 SCT065 SCT080 | 3 | -2 | 70% | 76.53 | 0.0 | |||||||
| 01 | 22:55 | Calm | 16.09 | Mostly Cloudy | SCT047 SCT050 BKN075 | 4 | -2 | 65% | 76.53 | 0.0 | |||||||
| 01 | 22:35 | NW 6 | 16.09 | Mostly Cloudy | SCT065 BKN075 BKN090 | 5 | -2 | 61% | 76.53 | 0.0 | |||||||
| 01 | 22:15 | Calm | 16.09 | Mostly Cloudy | BKN075 | 6 | -3 | 53% | 76.5 | 0.0 | |||||||
| 01 | 21:55 | NW 7 | 16.09 | Mostly Cloudy | SCT049 BKN075 | 7 | -4 | 46% | 6 | 76.5 | 0.0 | ||||||
| 01 | 21:35 | NW 6 | 16.09 | Mostly Cloudy | BKN075 BKN100 | 8 | -4 | 43% | 76.48 | 0.0 | |||||||
| 01 | 21:15 | NW 7 | 16.09 | Overcast | OVC075 | 9 | -4 | 40% | 8 | 76.45 | 0.0 | ||||||
| 01 | 20:55 | Calm | 16.09 | Overcast | SCT060 OVC075 | 9 | -4 | 40% | 76.43 | 0.0 | |||||||
| 01 | 20:35 | NW 7 | 16.09 | Mostly Cloudy | SCT060 BKN075 | 9 | -4 | 40% | 8 | 76.43 | 0.0 | ||||||
| 01 | 20:15 | NW 9 | 16.09 | Mostly Cloudy | SCT075 BKN080 | 10 | -5 | 35% | 9 | 76.4 | 0.0 | ||||||
| 01 | 19:55 | NW 9 | 16.09 | Overcast | OVC075 | 11 | -5 | 32% | 76.4 | 0.0 | |||||||
| 01 | 19:35 | N 13 | 16.09 | Overcast | OVC075 | 11 | -5 | 32% | 76.38 | 0.0 | |||||||
| Date | Time (cdt) | Wind (kph) | Vis. (km) | Weather | Sky Cond. | Air | Dwpt | Max. | Min. | Relative Humidity | Wind Chill (°C) | Heat Index (°C) | altimeter (cm) | sea level (mb) | 1 hr | 3 hr | 6 hr |
| 6 hour | |||||||||||||||||
| Temperature (ºC) | Pressure | Precipitation (cm) | |||||||||||||||